Airfield :
LOGIN :

Register | Disclaimer

   EN    FR    IT 

 










Legend :    VFR   Marginal VFR   IFR   Intensive IFR   Very Intensive IFR
Visi :
Ceiling :
>= 8 km
>= 3000ft
5 to 8 km
1000 to 3000 ft
1500m to 5 km
500 to 1000 ft
800 to 1500m
200 to 500 ft
< 800m
< 200 ft
Symbols :   Thunderstorms  Fog  Heavy snow  Heavy precipitations  Wind > 20 kt
SIGMETs :     Misc.  Thunderstorms  Icing  Turbulence  Mountain Waves  Volcanic Ashes







- Airport Elevation : 257 ft
- IATA code : MAN
- Download approach charts


EGCC - Manchester

CURRENT METAR :
  • 160450Z AUTO VRB04KT 9999 OVC009 11/10 Q1014 NOSIG

EXPIRED METARs :
  • 160420Z AUTO VRB03KT 9999 OVC008 11/10 Q1014
  • 160350Z AUTO VRB03KT 9999 BKN009 OVC013 11/10 Q1014 NOSIG
  • 160320Z AUTO 15004KT 100V250 9999 OVC009 11/10 Q1014
  • 160250Z VRB02KT 9999 BKN011 11/10 Q1014 BECMG BKN009
  • 160220Z AUTO VRB01KT 9999 BKN013 OVC018 11/09 Q1014

TAF AMD TAF EGCC
Valid from the 16 at 03:00 until the 17 at 06:00 UTC


160308Z 1603/1706 08003KT 9999 OVC010
PROB40
TEMPO 1603/1607 3000 BR BKN004
BECMG 1607/1610 SCT007
BECMG 1610/1613 19010KT
PROB30
TEMPO 1613/1617 CAVOK
PROB40
TEMPO 1620/1624 8000 -RA BKN014
BECMG 1700/1703 CAVOK
PROB40 1703/1706 4000 BR
ATIS : +44 161 499 2324
No reported NOTAMs for that airfield.



MET'MAP, your aeronautical weather chart ! - Copyright ORBIFLY December 2007 - Disclaimer

ORBIFLY MET'MAP TEAM :

Programming & Development : Alexandra Zaïnal
Concept & Development : Baudouin d'Aumeries
Co-Development & Prog : Marc-Olivier Méhu
Technical & hardware support : Manuel Goepfert

Contact : metmap@orbifly.com




SOURCES & CREDITS :

   NOAA